createdAt,value
2023-05-05T04:00:49.649Z,1002.12
2023-05-05T04:01:50.670Z,1002.10
2023-05-05T04:02:50.726Z,1002.12
2023-05-05T04:03:50.698Z,1002.12
2023-05-05T04:04:50.605Z,1002.11
2023-05-05T04:05:50.630Z,1002.12
2023-05-05T04:06:50.642Z,1002.13
2023-05-05T04:07:50.609Z,1002.13
2023-05-05T04:08:50.577Z,1002.15
2023-05-05T04:09:50.542Z,1002.17
2023-05-05T04:10:50.586Z,1002.18
2023-05-05T04:11:50.557Z,1002.21
2023-05-05T04:12:50.635Z,1002.23
2023-05-05T04:13:50.504Z,1002.25
2023-05-05T04:14:50.495Z,1002.23
2023-05-05T04:15:50.544Z,1002.20
2023-05-05T04:16:50.496Z,1002.20
2023-05-05T04:17:50.766Z,1002.21
2023-05-05T04:18:50.463Z,1002.20
2023-05-05T04:19:51.102Z,1002.21
2023-05-05T04:20:51.112Z,1002.21
2023-05-05T04:21:50.432Z,1002.22
2023-05-05T04:22:52.625Z,1002.23
2023-05-05T04:23:50.407Z,1002.23
2023-05-05T04:24:50.395Z,1002.24
2023-05-05T04:25:50.382Z,1002.24
2023-05-05T04:26:50.378Z,1002.28
2023-05-05T04:27:50.397Z,1002.26
2023-05-05T04:28:50.361Z,1002.27
2023-05-05T04:29:50.336Z,1002.27
2023-05-05T04:30:50.352Z,1002.26
2023-05-05T04:31:50.397Z,1002.27
2023-05-05T04:32:50.357Z,1002.24
2023-05-05T04:33:50.294Z,1002.21
2023-05-05T04:34:50.284Z,1002.23
2023-05-05T04:35:50.268Z,1002.24
2023-05-05T04:36:50.260Z,1002.23
2023-05-05T04:37:50.270Z,1002.24
2023-05-05T04:38:50.291Z,1002.25
2023-05-05T04:39:50.231Z,1002.25
2023-05-05T04:40:50.218Z,1002.28
2023-05-05T04:41:50.226Z,1002.31
2023-05-05T04:42:50.237Z,1002.31
2023-05-05T04:43:50.191Z,1002.35
2023-05-05T04:44:50.197Z,1002.40
2023-05-05T04:45:50.163Z,1002.42
2023-05-05T04:46:50.218Z,1002.41
2023-05-05T04:47:50.218Z,1002.40
2023-05-05T04:48:50.135Z,1002.38
2023-05-05T04:49:50.160Z,1002.39
2023-05-05T04:50:50.135Z,1002.41
2023-05-05T04:51:50.107Z,1002.43
2023-05-05T04:52:52.557Z,1002.49
2023-05-05T04:53:50.082Z,1002.52
2023-05-05T04:54:50.074Z,1002.54
2023-05-05T04:55:50.052Z,1002.54
2023-05-05T04:56:50.097Z,1002.50
2023-05-05T04:57:50.085Z,1002.49
2023-05-05T04:58:50.048Z,1002.48
2023-05-05T04:59:50.039Z,1002.48
2023-05-05T05:00:50.038Z,1002.49
2023-05-05T05:01:50.017Z,1002.50
2023-05-05T05:02:50.072Z,1002.52
2023-05-05T05:03:50.016Z,1002.52
2023-05-05T05:04:49.968Z,1002.53
2023-05-05T05:05:49.981Z,1002.54
2023-05-05T05:06:49.991Z,1002.54
2023-05-05T05:07:49.954Z,1002.54
2023-05-05T05:08:49.909Z,1002.55
2023-05-05T05:09:49.910Z,1002.57
2023-05-05T05:10:50.245Z,1002.58
2023-05-05T05:11:49.907Z,1002.60
2023-05-05T05:12:49.945Z,1002.59
2023-05-05T05:13:49.881Z,1002.58
2023-05-05T05:14:49.862Z,1002.57
2023-05-05T05:15:49.859Z,1002.58
2023-05-05T05:16:49.905Z,1002.60
2023-05-05T05:17:49.857Z,1002.62
2023-05-05T05:18:49.810Z,1002.63
2023-05-05T05:19:49.793Z,1002.67
2023-05-05T05:20:49.819Z,1002.70
2023-05-05T05:21:49.788Z,1002.70
2023-05-05T05:22:49.781Z,1002.70
2023-05-05T05:23:49.757Z,1002.69
2023-05-05T05:24:49.759Z,1002.69
2023-05-05T05:25:49.750Z,1002.70
2023-05-05T05:26:49.736Z,1002.69
2023-05-05T05:27:58.511Z,1002.68
2023-05-05T05:28:49.730Z,1002.68
2023-05-05T05:29:49.698Z,1002.67
2023-05-05T05:30:49.694Z,1002.69
2023-05-05T05:31:49.697Z,1002.70
2023-05-05T05:32:49.685Z,1002.72
2023-05-05T05:33:49.637Z,1002.73
2023-05-05T05:34:49.655Z,1002.73
2023-05-05T05:35:49.648Z,1002.74
2023-05-05T05:36:49.615Z,1002.77
2023-05-05T05:37:49.656Z,1002.79
2023-05-05T05:38:49.636Z,1002.80
2023-05-05T05:39:49.614Z,1002.81
2023-05-05T05:40:49.606Z,1002.81
2023-05-05T05:41:49.566Z,1002.83
2023-05-05T05:42:49.548Z,1002.87
2023-05-05T05:43:49.555Z,1002.88
2023-05-05T05:44:49.533Z,1002.89
2023-05-05T05:45:49.574Z,1002.90
2023-05-05T05:46:49.540Z,1002.91
2023-05-05T05:47:49.524Z,1002.91
2023-05-05T05:48:49.532Z,1002.92
2023-05-05T05:49:49.558Z,1002.92
2023-05-05T05:50:49.542Z,1002.94
2023-05-05T05:51:49.559Z,1002.92
2023-05-05T05:52:49.460Z,1002.91
2023-05-05T05:53:49.453Z,1002.93
2023-05-05T05:54:49.520Z,1002.96
2023-05-05T05:55:49.415Z,1002.97
2023-05-05T05:56:49.404Z,1002.94
2023-05-05T05:57:49.390Z,1002.98
2023-05-05T05:58:49.412Z,1003.00
2023-05-05T05:59:49.376Z,1003.05
2023-05-05T06:00:49.368Z,1003.08
2023-05-05T06:01:49.343Z,1003.11
2023-05-05T06:02:49.392Z,1003.12
2023-05-05T06:03:49.497Z,1003.11
2023-05-05T06:04:49.324Z,1003.12
2023-05-05T06:05:49.323Z,1003.12
2023-05-05T06:06:49.302Z,1003.11
2023-05-05T06:07:49.333Z,1003.12
2023-05-05T06:08:49.274Z,1003.15
2023-05-05T06:09:49.272Z,1003.16
2023-05-05T06:10:49.281Z,1003.16
2023-05-05T06:11:49.268Z,1003.18
2023-05-05T06:12:49.311Z,1003.21
2023-05-05T06:13:49.228Z,1003.21
2023-05-05T06:14:49.214Z,1003.25
2023-05-05T06:15:49.223Z,1003.22
2023-05-05T06:16:49.241Z,1003.25
2023-05-05T06:17:49.223Z,1003.28
2023-05-05T06:18:49.174Z,1003.31
2023-05-05T06:19:49.197Z,1003.33
2023-05-05T06:20:49.159Z,1003.35
2023-05-05T06:21:49.205Z,1003.38
2023-05-05T06:22:49.136Z,1003.38
2023-05-05T06:23:49.123Z,1003.38
2023-05-05T06:24:50.030Z,1003.38
2023-05-05T06:25:49.103Z,1003.38
2023-05-05T06:26:49.093Z,1003.38
2023-05-05T06:27:49.084Z,1003.37
2023-05-05T06:28:49.071Z,1003.35
2023-05-05T06:29:49.108Z,1003.36
2023-05-05T06:30:49.038Z,1003.34
2023-05-05T06:31:49.211Z,1003.31
2023-05-05T06:32:49.753Z,1003.33
2023-05-05T06:33:49.014Z,1003.33
2023-05-05T06:34:49.018Z,1003.32
2023-05-05T06:35:49.019Z,1003.34
2023-05-05T06:36:49.035Z,1003.35
2023-05-05T06:37:48.990Z,1003.38
2023-05-05T06:38:48.954Z,1003.37
2023-05-05T06:39:49.007Z,1003.36
2023-05-05T06:40:48.940Z,1003.34
2023-05-05T06:41:48.935Z,1003.36
2023-05-05T06:42:48.949Z,1003.35
2023-05-05T06:43:48.914Z,1003.36
2023-05-05T06:44:48.938Z,1003.38
2023-05-05T06:45:48.918Z,1003.39
2023-05-05T06:46:48.927Z,1003.41
2023-05-05T06:47:48.910Z,1003.40
2023-05-05T06:48:48.858Z,1003.40
2023-05-05T06:49:48.905Z,1003.40
2023-05-05T06:50:48.822Z,1003.40
2023-05-05T06:51:48.856Z,1003.38
2023-05-05T06:52:48.819Z,1003.38
2023-05-05T06:53:48.804Z,1003.38
2023-05-05T06:54:48.797Z,1003.38
2023-05-05T06:55:48.795Z,1003.38
2023-05-05T06:56:48.767Z,1003.38
2023-05-05T06:57:48.777Z,1003.37
2023-05-05T06:58:48.763Z,1003.39
2023-05-05T06:59:48.732Z,1003.40
2023-05-05T07:00:48.787Z,1003.41
2023-05-05T07:01:48.800Z,1003.41
2023-05-05T07:02:48.728Z,1003.41
2023-05-05T07:03:48.704Z,1003.43
2023-05-05T07:04:48.722Z,1003.44
2023-05-05T07:05:48.681Z,1003.44
2023-05-05T07:06:48.680Z,1003.47
2023-05-05T07:07:48.657Z,1003.49
2023-05-05T07:08:48.669Z,1003.52
2023-05-05T07:09:48.729Z,1003.51
2023-05-05T07:10:48.637Z,1003.50
2023-05-05T07:11:48.632Z,1003.49
2023-05-05T07:12:48.715Z,1003.53
2023-05-05T07:13:48.590Z,1003.51
2023-05-05T07:14:48.573Z,1003.50
2023-05-05T07:15:48.654Z,1003.52
2023-05-05T07:16:48.615Z,1003.50
2023-05-05T07:17:48.562Z,1003.53
2023-05-05T07:18:48.531Z,1003.55
2023-05-05T07:19:48.532Z,1003.57
2023-05-05T07:20:48.522Z,1003.55
2023-05-05T07:21:48.524Z,1003.60
2023-05-05T07:22:48.497Z,1003.61
2023-05-05T07:23:48.493Z,1003.61
2023-05-05T07:24:49.732Z,1003.61
2023-05-05T07:25:48.487Z,1003.64
2023-05-05T07:26:48.452Z,1003.66
2023-05-05T07:27:48.468Z,1003.67
2023-05-05T07:28:48.443Z,1003.65
2023-05-05T07:29:48.432Z,1003.70
2023-05-05T07:30:48.446Z,1003.73
2023-05-05T07:31:48.420Z,1003.72
2023-05-05T07:32:48.450Z,1003.74
2023-05-05T07:33:48.377Z,1003.74
2023-05-05T07:34:48.538Z,1003.74
2023-05-05T07:35:48.388Z,1003.77
2023-05-05T07:36:48.341Z,1003.76
2023-05-05T07:37:48.360Z,1003.77
2023-05-05T07:38:48.325Z,1003.79
2023-05-05T07:39:48.309Z,1003.79
2023-05-05T07:40:48.344Z,1003.79
2023-05-05T07:41:48.308Z,1003.77
2023-05-05T07:42:48.278Z,1003.77
2023-05-05T07:43:48.277Z,1003.79
2023-05-05T07:44:48.252Z,1003.79
2023-05-05T07:45:48.365Z,1003.84
2023-05-05T07:46:48.232Z,1003.81
2023-05-05T07:47:48.259Z,1003.82
2023-05-05T07:48:48.238Z,1003.84
2023-05-05T07:49:48.208Z,1003.85
2023-05-05T07:50:48.211Z,1003.83
2023-05-05T07:51:48.178Z,1003.84
2023-05-05T07:52:51.816Z,1003.86
2023-05-05T07:53:48.190Z,1003.85
2023-05-05T07:54:48.186Z,1003.85
2023-05-05T07:55:48.161Z,1003.86
2023-05-05T07:56:48.120Z,1003.85
2023-05-05T07:57:48.117Z,1003.85
2023-05-05T07:58:48.118Z,1003.87
2023-05-05T07:59:48.112Z,1003.88
2023-05-05T08:00:48.110Z,1003.89
2023-05-05T08:01:48.075Z,1003.88
2023-05-05T08:02:48.276Z,1003.89
2023-05-05T08:03:48.329Z,1003.90
2023-05-05T08:04:48.120Z,1003.92
2023-05-05T08:05:49.915Z,1003.94
2023-05-05T08:06:48.039Z,1003.94
2023-05-05T08:07:48.031Z,1003.96
2023-05-05T08:08:48.003Z,1003.99
2023-05-05T08:09:48.002Z,1003.99
2023-05-05T08:10:48.035Z,1004.02
2023-05-05T08:11:47.975Z,1004.02
2023-05-05T08:12:48.051Z,1004.04
2023-05-05T08:13:47.951Z,1004.05
2023-05-05T08:14:47.942Z,1004.06
2023-05-05T08:15:48.021Z,1004.05
2023-05-05T08:16:47.921Z,1004.07
2023-05-05T08:17:47.988Z,1004.05
2023-05-05T08:18:47.940Z,1004.03
2023-05-05T08:19:47.889Z,1004.01
2023-05-05T08:20:47.877Z,1003.99
2023-05-05T08:21:47.878Z,1003.98
2023-05-05T08:22:47.883Z,1003.96
2023-05-05T08:23:47.876Z,1003.97
2023-05-05T08:24:47.878Z,1003.97
2023-05-05T08:25:47.832Z,1003.96
2023-05-05T08:26:47.878Z,1004.00
2023-05-05T08:27:47.825Z,1004.03
2023-05-05T08:28:47.806Z,1004.04
2023-05-05T08:29:47.801Z,1004.05
2023-05-05T08:30:47.803Z,1004.07
2023-05-05T08:31:47.792Z,1004.06
2023-05-05T08:32:47.778Z,1004.12
2023-05-05T08:33:47.767Z,1004.13
2023-05-05T08:34:47.754Z,1004.16
2023-05-05T08:35:47.784Z,1004.18
2023-05-05T08:36:47.725Z,1004.18
2023-05-05T08:37:47.711Z,1004.20
2023-05-05T08:38:47.706Z,1004.22
2023-05-05T08:39:47.689Z,1004.26
2023-05-05T08:40:47.740Z,1004.27
2023-05-05T08:41:47.669Z,1004.29
2023-05-05T08:42:47.649Z,1004.27
2023-05-05T08:43:47.692Z,1004.26
2023-05-05T08:44:47.630Z,1004.24
2023-05-05T08:45:47.649Z,1004.26
2023-05-05T08:46:47.633Z,1004.27
2023-05-05T08:47:47.638Z,1004.23
2023-05-05T08:48:47.622Z,1004.28
2023-05-05T08:49:47.621Z,1004.26
2023-05-05T08:50:47.577Z,1004.25
2023-05-05T08:51:47.562Z,1004.23
2023-05-05T08:52:48.647Z,1004.24
2023-05-05T08:53:47.597Z,1004.24
2023-05-05T08:54:47.532Z,1004.24
2023-05-05T08:55:47.569Z,1004.22
2023-05-05T08:56:47.525Z,1004.23
2023-05-05T08:57:47.532Z,1004.23
2023-05-05T08:58:47.500Z,1004.22
2023-05-05T08:59:47.479Z,1004.21
2023-05-05T09:00:47.504Z,1004.20
2023-05-05T09:01:47.477Z,1004.21
2023-05-05T09:02:47.545Z,1004.17
2023-05-05T09:03:48.342Z,1004.21
2023-05-05T09:04:47.431Z,1004.20
2023-05-05T09:05:47.408Z,1004.20
2023-05-05T09:06:47.414Z,1004.19
2023-05-05T09:07:47.590Z,1004.18
2023-05-05T09:08:47.390Z,1004.16
2023-05-05T09:09:47.371Z,1004.15
2023-05-05T09:10:47.372Z,1004.16
2023-05-05T09:11:47.357Z,1004.16
2023-05-05T09:12:47.378Z,1004.17
2023-05-05T09:13:47.359Z,1004.17
2023-05-05T09:14:47.354Z,1004.17
2023-05-05T09:15:47.299Z,1004.16
2023-05-05T09:16:47.307Z,1004.17
2023-05-05T09:17:47.376Z,1004.17
2023-05-05T09:18:47.275Z,1004.17
2023-05-05T09:19:47.321Z,1004.17
2023-05-05T09:20:47.237Z,1004.16
2023-05-05T09:21:47.243Z,1004.19
2023-05-05T09:22:47.296Z,1004.19
2023-05-05T09:23:47.233Z,1004.21
2023-05-05T09:24:47.215Z,1004.17
2023-05-05T09:25:47.207Z,1004.19
2023-05-05T09:26:47.201Z,1004.16
2023-05-05T09:27:47.249Z,1004.15
2023-05-05T09:28:47.159Z,1004.14
2023-05-05T09:29:47.225Z,1004.12
2023-05-05T09:30:47.182Z,1004.12
2023-05-05T09:31:47.187Z,1004.10
2023-05-05T09:32:47.247Z,1004.11
2023-05-05T09:33:47.134Z,1004.09
2023-05-05T09:34:47.105Z,1004.10
2023-05-05T09:35:47.111Z,1004.07
2023-05-05T09:36:47.096Z,1004.07
2023-05-05T09:37:47.098Z,1004.10
2023-05-05T09:38:47.077Z,1004.10
2023-05-05T09:39:47.052Z,1004.10
2023-05-05T09:40:47.051Z,1004.10
2023-05-05T09:41:47.077Z,1004.11
2023-05-05T09:42:47.031Z,1004.10
2023-05-05T09:43:47.009Z,1004.08
2023-05-05T09:44:47.019Z,1004.09
2023-05-05T09:45:46.984Z,1004.07
2023-05-05T09:46:47.057Z,1004.08
2023-05-05T09:47:47.151Z,1004.07
2023-05-05T09:48:46.962Z,1004.08
2023-05-05T09:49:46.960Z,1004.07
2023-05-05T09:50:46.962Z,1004.05
2023-05-05T09:51:46.944Z,1004.04
2023-05-05T09:52:48.108Z,1004.02
2023-05-05T09:53:46.915Z,1004.01
2023-05-05T09:54:46.893Z,1004.01
2023-05-05T09:55:46.898Z,1003.99
2023-05-05T09:56:46.865Z,1004.02
2023-05-05T09:57:46.858Z,1004.02
2023-05-05T09:58:46.858Z,1003.98
2023-05-05T09:59:46.851Z,1003.98
2023-05-05T10:00:46.867Z,1003.95
2023-05-05T10:01:46.845Z,1003.96
2023-05-05T10:02:46.849Z,1003.91
2023-05-05T10:03:46.796Z,1003.91
2023-05-05T10:04:46.826Z,1003.95
2023-05-05T10:05:46.784Z,1003.97
2023-05-05T10:06:46.786Z,1003.99
2023-05-05T10:07:46.781Z,1003.98
2023-05-05T10:08:46.751Z,1003.98
2023-05-05T10:09:46.757Z,1003.98
2023-05-05T10:10:46.722Z,1003.98
2023-05-05T10:11:46.723Z,1003.97
2023-05-05T10:12:46.747Z,1003.98
2023-05-05T10:13:46.693Z,1003.96
2023-05-05T10:14:46.734Z,1003.96
2023-05-05T10:15:46.676Z,1003.95
2023-05-05T10:16:46.675Z,1003.97
2023-05-05T10:18:02.381Z,1003.96
2023-05-05T10:18:46.702Z,1004.00
2023-05-05T10:19:46.627Z,1004.01
2023-05-05T10:20:46.611Z,1004.03
2023-05-05T10:21:46.609Z,1004.01
2023-05-05T10:22:46.619Z,1004.04
2023-05-05T10:23:46.615Z,1004.01
2023-05-05T10:24:46.566Z,1003.96
2023-05-05T10:25:46.562Z,1003.96
2023-05-05T10:26:46.549Z,1003.95
2023-05-05T10:27:46.557Z,1003.95
2023-05-05T10:28:46.560Z,1003.93
2023-05-05T10:29:46.519Z,1003.93
2023-05-05T10:30:46.523Z,1003.91
2023-05-05T10:31:46.560Z,1003.91
2023-05-05T10:32:57.318Z,1003.91
2023-05-05T10:33:46.548Z,1003.88
2023-05-05T10:34:46.483Z,1003.88
2023-05-05T10:35:46.476Z,1003.87
2023-05-05T10:36:46.463Z,1003.85
2023-05-05T10:37:46.466Z,1003.84
2023-05-05T10:38:46.458Z,1003.83
2023-05-05T10:39:46.429Z,1003.84
2023-05-05T10:40:46.438Z,1003.80
2023-05-05T10:41:46.418Z,1003.80
2023-05-05T10:42:46.428Z,1003.78
2023-05-05T10:43:46.385Z,1003.78
2023-05-05T10:44:46.370Z,1003.76
2023-05-05T10:45:46.474Z,1003.75
2023-05-05T10:46:46.422Z,1003.73
2023-05-05T10:47:46.477Z,1003.72
2023-05-05T10:48:46.406Z,1003.68
2023-05-05T10:49:46.329Z,1003.69
2023-05-05T10:50:46.319Z,1003.70
2023-05-05T10:51:46.312Z,1003.71
2023-05-05T10:52:46.294Z,1003.67
2023-05-05T10:53:46.326Z,1003.66
2023-05-05T10:54:46.269Z,1003.63
2023-05-05T10:55:46.265Z,1003.66
2023-05-05T10:56:46.272Z,1003.66
2023-05-05T10:57:46.237Z,1003.66
2023-05-05T10:58:59.237Z,1003.65
2023-05-05T10:59:46.213Z,1003.65
2023-05-05T11:00:46.216Z,1003.65
2023-05-05T11:01:46.194Z,1003.67
2023-05-05T11:02:46.273Z,1003.69
2023-05-05T11:03:46.266Z,1003.64
2023-05-05T11:04:46.166Z,1003.61
2023-05-05T11:05:46.164Z,1003.59
2023-05-05T11:06:46.162Z,1003.58
2023-05-05T11:07:46.165Z,1003.58
2023-05-05T11:08:46.117Z,1003.57
2023-05-05T11:09:46.110Z,1003.55
2023-05-05T11:10:46.118Z,1003.53
2023-05-05T11:11:46.082Z,1003.50
2023-05-05T11:12:46.086Z,1003.46
2023-05-05T11:13:46.072Z,1003.45
2023-05-05T11:14:46.090Z,1003.44
2023-05-05T11:15:46.059Z,1003.42
2023-05-05T11:16:46.121Z,1003.40
2023-05-05T11:17:46.080Z,1003.38
2023-05-05T11:18:46.018Z,1003.35
2023-05-05T11:19:46.069Z,1003.37
2023-05-05T11:20:46.039Z,1003.36
2023-05-05T11:21:45.976Z,1003.38
2023-05-05T11:22:45.964Z,1003.36
2023-05-05T11:23:45.978Z,1003.33
2023-05-05T11:24:45.982Z,1003.32
2023-05-05T11:25:45.948Z,1003.29
2023-05-05T11:26:45.930Z,1003.26
2023-05-05T11:27:45.920Z,1003.24
2023-05-05T11:28:45.929Z,1003.24
2023-05-05T11:29:45.904Z,1003.23
2023-05-05T11:30:45.900Z,1003.20
2023-05-05T11:31:45.898Z,1003.20
2023-05-05T11:32:45.914Z,1003.17
2023-05-05T11:33:45.879Z,1003.17
2023-05-05T11:34:45.864Z,1003.20
2023-05-05T11:35:45.844Z,1003.12
2023-05-05T11:36:45.819Z,1003.11
2023-05-05T11:37:45.824Z,1003.08
2023-05-05T11:38:45.886Z,1003.04
2023-05-05T11:39:45.798Z,1003.01
2023-05-05T11:40:45.798Z,1003.04
2023-05-05T11:41:45.763Z,1003.06
2023-05-05T11:42:45.757Z,1003.06
2023-05-05T11:43:45.762Z,1003.05
2023-05-05T11:44:45.743Z,1003.05
2023-05-05T11:45:45.721Z,1003.06
2023-05-05T11:46:45.771Z,1003.05
2023-05-05T11:47:46.643Z,1003.03
2023-05-05T11:48:45.710Z,1003.04
2023-05-05T11:49:45.689Z,1003.03
2023-05-05T11:50:45.675Z,1003.05
2023-05-05T11:51:45.673Z,1003.03
2023-05-05T11:52:45.709Z,1003.02
2023-05-05T11:53:45.655Z,1003.01
2023-05-05T11:54:45.636Z,1002.97
2023-05-05T11:55:45.621Z,1002.95
2023-05-05T11:56:45.639Z,1002.94
2023-05-05T11:57:45.601Z,1002.92
2023-05-05T11:58:45.602Z,1002.90
2023-05-05T11:59:46.308Z,1002.89
2023-05-05T12:00:45.587Z,1002.89
2023-05-05T12:01:45.571Z,1002.91
2023-05-05T12:02:45.624Z,1002.89
2023-05-05T12:03:46.217Z,1002.87
2023-05-05T12:04:45.576Z,1002.89
2023-05-05T12:05:45.540Z,1002.88
2023-05-05T12:06:45.538Z,1002.88
2023-05-05T12:07:45.529Z,1002.89
2023-05-05T12:08:45.490Z,1002.92
2023-05-05T12:09:45.489Z,1002.95
2023-05-05T12:10:45.494Z,1002.97
2023-05-05T12:11:45.476Z,1002.98
2023-05-05T12:12:45.484Z,1002.98
2023-05-05T12:13:45.432Z,1002.97
2023-05-05T12:14:45.429Z,1002.96
2023-05-05T12:15:45.407Z,1002.97
2023-05-05T12:16:45.451Z,1002.94
2023-05-05T12:17:45.402Z,1002.92
2023-05-05T12:18:45.403Z,1002.92
2023-05-05T12:19:45.393Z,1002.90
2023-05-05T12:20:45.395Z,1002.89
2023-05-05T12:21:45.353Z,1002.88
2023-05-05T12:22:45.364Z,1002.88
2023-05-05T12:23:45.341Z,1002.85
2023-05-05T12:24:45.360Z,1002.86
2023-05-05T12:25:45.311Z,1002.84
2023-05-05T12:26:45.297Z,1002.83
2023-05-05T12:27:45.295Z,1002.84
2023-05-05T12:28:45.276Z,1002.82
2023-05-05T12:29:45.262Z,1002.82
2023-05-05T12:30:45.351Z,1002.82
2023-05-05T12:31:45.289Z,1002.81
2023-05-05T12:32:45.330Z,1002.79
2023-05-05T12:33:45.231Z,1002.80
2023-05-05T12:34:45.349Z,1002.81
2023-05-05T12:35:45.265Z,1002.80
2023-05-05T12:36:45.207Z,1002.77
2023-05-05T12:37:45.184Z,1002.78
2023-05-05T12:38:45.184Z,1002.79
2023-05-05T12:39:45.181Z,1002.78
2023-05-05T12:40:45.282Z,1002.79
2023-05-05T12:41:45.158Z,1002.81
2023-05-05T12:42:46.318Z,1002.78
2023-05-05T12:43:45.159Z,1002.77
2023-05-05T12:44:45.155Z,1002.76
2023-05-05T12:45:45.138Z,1002.74
2023-05-05T12:46:45.090Z,1002.72
2023-05-05T12:47:45.126Z,1002.69
2023-05-05T12:48:47.970Z,1002.69
2023-05-05T12:49:45.084Z,1002.68
2023-05-05T12:50:45.076Z,1002.65
2023-05-05T12:51:45.042Z,1002.65
2023-05-05T12:52:45.063Z,1002.65
2023-05-05T12:53:45.046Z,1002.68
2023-05-05T12:54:45.064Z,1002.70
2023-05-05T12:55:45.025Z,1002.71
2023-05-05T12:56:44.998Z,1002.72
2023-05-05T12:57:44.982Z,1002.74
2023-05-05T12:58:45.009Z,1002.75
2023-05-05T12:59:44.971Z,1002.76
2023-05-05T13:00:45.011Z,1002.79
2023-05-05T13:01:45.027Z,1002.81
2023-05-05T13:02:45.106Z,1002.81
2023-05-05T13:03:44.925Z,1002.82
2023-05-05T13:04:44.915Z,1002.80
2023-05-05T13:05:44.904Z,1002.80
2023-05-05T13:06:44.896Z,1002.80
2023-05-05T13:07:44.907Z,1002.79
2023-05-05T13:08:44.897Z,1002.78
2023-05-05T13:09:44.883Z,1002.77
2023-05-05T13:10:44.845Z,1002.75
2023-05-05T13:11:44.820Z,1002.74
2023-05-05T13:12:44.912Z,1002.75
2023-05-05T13:13:44.831Z,1002.74
2023-05-05T13:14:44.863Z,1002.72
2023-05-05T13:15:44.822Z,1002.71
2023-05-05T13:16:44.789Z,1002.71
2023-05-05T13:17:44.843Z,1002.72
2023-05-05T13:18:44.779Z,1002.72
2023-05-05T13:19:44.749Z,1002.72
2023-05-05T13:20:44.754Z,1002.72
2023-05-05T13:21:44.748Z,1002.71
2023-05-05T13:22:44.791Z,1002.72
2023-05-05T13:23:44.734Z,1002.71
2023-05-05T13:24:51.719Z,1002.72
2023-05-05T13:25:44.699Z,1002.73
2023-05-05T13:26:44.729Z,1002.75
2023-05-05T13:27:44.740Z,1002.76
2023-05-05T13:28:44.700Z,1002.77
2023-05-05T13:29:44.676Z,1002.77
2023-05-05T13:30:44.669Z,1002.78
2023-05-05T13:31:44.787Z,1002.78
2023-05-05T13:32:44.696Z,1002.78
2023-05-05T13:33:44.604Z,1002.78
2023-05-05T13:34:44.639Z,1002.78
2023-05-05T13:35:44.586Z,1002.79
2023-05-05T13:36:44.622Z,1002.80
2023-05-05T13:37:44.561Z,1002.81
2023-05-05T13:38:44.570Z,1002.83
2023-05-05T13:39:44.560Z,1002.85
2023-05-05T13:40:44.627Z,1002.87
2023-05-05T13:41:44.520Z,1002.89
2023-05-05T13:42:44.519Z,1002.91
2023-05-05T13:43:44.545Z,1002.94
2023-05-05T13:44:44.557Z,1002.98
2023-05-05T13:45:44.524Z,1003.04
2023-05-05T13:46:44.503Z,1003.13
2023-05-05T13:47:44.512Z,1003.28
2023-05-05T13:48:44.986Z,1003.58
2023-05-05T13:49:44.471Z,1003.41
2023-05-05T13:50:44.446Z,1003.70
2023-05-05T13:51:44.408Z,1003.75
2023-05-05T13:52:44.411Z,1003.89
2023-05-05T13:53:44.511Z,1003.87
2023-05-05T13:54:44.424Z,1003.88
2023-05-05T13:55:44.377Z,1003.82
2023-05-05T13:56:44.393Z,1003.79
2023-05-05T13:57:44.439Z,1003.81
2023-05-05T13:58:44.356Z,1003.77
2023-05-05T13:59:44.361Z,1003.82
2023-05-05T14:00:44.355Z,1003.87
2023-05-05T14:01:44.328Z,1003.86
2023-05-05T14:02:44.357Z,1003.84
2023-05-05T14:03:44.306Z,1003.75
2023-05-05T14:04:44.281Z,1003.75
2023-05-05T14:05:44.280Z,1003.70
2023-05-05T14:06:44.324Z,1003.63
2023-05-05T14:07:44.268Z,1003.61
2023-05-05T14:08:44.246Z,1003.57
2023-05-05T14:09:44.261Z,1003.60
2023-05-05T14:10:46.087Z,1003.63
2023-05-05T14:11:44.251Z,1003.64
2023-05-05T14:12:44.277Z,1003.64
2023-05-05T14:13:44.196Z,1003.67
2023-05-05T14:14:44.219Z,1003.71
2023-05-05T14:15:44.173Z,1003.76
2023-05-05T14:16:44.192Z,1003.76
2023-05-05T14:17:44.221Z,1003.75
2023-05-05T14:18:44.149Z,1003.70
2023-05-05T14:19:44.139Z,1003.67
2023-05-05T14:20:44.132Z,1003.64
2023-05-05T14:21:44.110Z,1003.62
2023-05-05T14:22:44.152Z,1003.59
2023-05-05T14:23:44.104Z,1003.56
2023-05-05T14:24:44.067Z,1003.56
2023-05-05T14:25:44.073Z,1003.53
2023-05-05T14:26:44.055Z,1003.50
2023-05-05T14:27:44.034Z,1003.47
2023-05-05T14:28:44.042Z,1003.44
2023-05-05T14:29:44.015Z,1003.44
2023-05-05T14:30:44.030Z,1003.40
2023-05-05T14:31:44.047Z,1003.39
2023-05-05T14:32:44.026Z,1003.39
2023-05-05T14:33:43.976Z,1003.36
2023-05-05T14:34:43.972Z,1003.33
2023-05-05T14:35:43.981Z,1003.33
2023-05-05T14:36:43.951Z,1003.33
2023-05-05T14:37:43.946Z,1003.36
2023-05-05T14:38:43.945Z,1003.37
2023-05-05T14:39:43.919Z,1003.32
2023-05-05T14:40:43.909Z,1003.27
2023-05-05T14:41:43.897Z,1003.32
2023-05-05T14:42:43.895Z,1003.37
2023-05-05T14:43:43.882Z,1003.37
2023-05-05T14:44:43.947Z,1003.32
2023-05-05T14:45:43.895Z,1003.32
2023-05-05T14:46:45.985Z,1003.30
2023-05-05T14:47:43.870Z,1003.32
2023-05-05T14:48:43.838Z,1003.34
2023-05-05T14:49:43.827Z,1003.34
2023-05-05T14:50:43.830Z,1003.28
2023-05-05T14:51:43.806Z,1003.22
2023-05-05T14:52:43.775Z,1003.18
2023-05-05T14:53:43.776Z,1003.17
2023-05-05T14:54:43.765Z,1003.14
2023-05-05T14:55:43.757Z,1003.12
2023-05-05T14:56:43.747Z,1003.12
2023-05-05T14:57:43.741Z,1003.13
2023-05-05T14:58:43.730Z,1003.11
2023-05-05T14:59:43.720Z,1003.08
2023-05-05T15:00:43.706Z,1003.05
2023-05-05T15:01:43.697Z,1003.04
2023-05-05T15:02:43.814Z,1003.06
2023-05-05T15:03:43.740Z,1003.09
2023-05-05T15:04:43.644Z,1003.12
2023-05-05T15:05:43.637Z,1003.15
2023-05-05T15:06:43.628Z,1003.17
2023-05-05T15:07:43.659Z,1003.19
2023-05-05T15:08:43.610Z,1003.21
2023-05-05T15:09:43.606Z,1003.23
2023-05-05T15:10:43.611Z,1003.25
2023-05-05T15:11:43.608Z,1003.26
2023-05-05T15:12:43.625Z,1003.28
2023-05-05T15:13:43.550Z,1003.29
2023-05-05T15:14:43.580Z,1003.32
2023-05-05T15:15:43.616Z,1003.35
2023-05-05T15:16:43.536Z,1003.39
2023-05-05T15:17:43.578Z,1003.39
2023-05-05T15:18:43.518Z,1003.38
2023-05-05T15:19:43.520Z,1003.38
2023-05-05T15:20:43.488Z,1003.38
2023-05-05T15:21:43.494Z,1003.37
2023-05-05T15:22:43.509Z,1003.36
2023-05-05T15:23:43.466Z,1003.36
2023-05-05T15:24:43.476Z,1003.37
2023-05-05T15:25:43.457Z,1003.38
2023-05-05T15:26:43.415Z,1003.39
2023-05-05T15:27:43.426Z,1003.39
2023-05-05T15:28:43.423Z,1003.38
2023-05-05T15:29:43.418Z,1003.37
2023-05-05T15:30:43.391Z,1003.35
2023-05-05T15:31:43.493Z,1003.34
2023-05-05T15:32:43.518Z,1003.32
2023-05-05T15:33:43.482Z,1003.31
2023-05-05T15:34:43.418Z,1003.31
2023-05-05T15:35:43.389Z,1003.30
2023-05-05T15:36:43.353Z,1003.30
2023-05-05T15:37:43.309Z,1003.30
2023-05-05T15:38:43.315Z,1003.28
2023-05-05T15:39:43.287Z,1003.28
2023-05-05T15:40:43.280Z,1003.28
2023-05-05T15:41:43.282Z,1003.28
2023-05-05T15:42:43.283Z,1003.28
2023-05-05T15:43:43.253Z,1003.29
2023-05-05T15:44:43.241Z,1003.32
2023-05-05T15:45:43.223Z,1003.35
2023-05-05T15:46:43.251Z,1003.38
2023-05-05T15:47:43.287Z,1003.39
2023-05-05T15:48:43.215Z,1003.39
2023-05-05T15:49:43.201Z,1003.40
2023-05-05T15:50:43.169Z,1003.43
2023-05-05T15:51:43.152Z,1003.45
2023-05-05T15:52:43.182Z,1003.47
2023-05-05T15:53:43.149Z,1003.48
2023-05-05T15:54:43.130Z,1003.50
2023-05-05T15:55:43.127Z,1003.51
2023-05-05T15:56:43.133Z,1003.51
2023-05-05T15:57:43.090Z,1003.53
2023-05-05T15:58:43.112Z,1003.54
2023-05-05T15:59:43.088Z,1003.54
2023-05-05T16:00:43.054Z,1003.56
2023-05-05T16:01:43.097Z,1003.56
2023-05-05T16:02:43.149Z,1003.55
2023-05-05T16:03:43.170Z,1003.54
2023-05-05T16:04:43.029Z,1003.54
2023-05-05T16:05:43.020Z,1003.52